sensor_id;sensor_type;location;lat;lon;timestamp;P1;durP1;ratioP1;P2;durP2;ratioP2
51949;SDS011;37974;53.218;6.640;2023-11-21T00:01:52;775.30;;;714.70;;
51949;SDS011;37974;53.218;6.640;2023-11-21T00:04:23;770.53;;;709.63;;
51949;SDS011;37974;53.218;6.640;2023-11-21T00:06:52;819.80;;;754.40;;
51949;SDS011;37974;53.218;6.640;2023-11-21T00:09:20;790.80;;;728.85;;
51949;SDS011;37974;53.218;6.640;2023-11-21T00:11:49;798.20;;;736.47;;
51949;SDS011;37974;53.218;6.640;2023-11-21T00:14:18;809.65;;;745.60;;
51949;SDS011;37974;53.218;6.640;2023-11-21T00:16:44;811.78;;;746.60;;
51949;SDS011;37974;53.218;6.640;2023-11-21T00:19:12;783.22;;;721.97;;
51949;SDS011;37974;53.218;6.640;2023-11-21T00:21:38;800.85;;;737.40;;
51949;SDS011;37974;53.218;6.640;2023-11-21T00:24:10;798.03;;;734.22;;
51949;SDS011;37974;53.218;6.640;2023-11-21T00:26:42;816.92;;;751.58;;
51949;SDS011;37974;53.218;6.640;2023-11-21T00:29:11;824.90;;;758.17;;
51949;SDS011;37974;53.218;6.640;2023-11-21T00:31:41;789.35;;;727.22;;
51949;SDS011;37974;53.218;6.640;2023-11-21T00:34:11;818.45;;;752.42;;
51949;SDS011;37974;53.218;6.640;2023-11-21T00:36:40;799.45;;;734.90;;
51949;SDS011;37974;53.218;6.640;2023-11-21T00:39:08;795.22;;;732.40;;
51949;SDS011;37974;53.218;6.640;2023-11-21T00:41:37;817.58;;;751.33;;
51949;SDS011;37974;53.218;6.640;2023-11-21T00:44:03;815.60;;;750.42;;
51949;SDS011;37974;53.218;6.640;2023-11-21T00:46:29;799.70;;;735.97;;
51949;SDS011;37974;53.218;6.640;2023-11-21T00:48:55;836.33;;;768.58;;
51949;SDS011;37974;53.218;6.640;2023-11-21T00:51:26;812.25;;;747.13;;
51949;SDS011;37974;53.218;6.640;2023-11-21T00:53:55;809.05;;;743.65;;
51949;SDS011;37974;53.218;6.640;2023-11-21T00:56:48;835.63;;;766.20;;
51949;SDS011;37974;53.218;6.640;2023-11-21T00:59:18;826.65;;;760.00;;
51949;SDS011;37974;53.218;6.640;2023-11-21T01:02:06;808.38;;;743.17;;
51949;SDS011;37974;53.218;6.640;2023-11-21T01:05:00;834.35;;;765.33;;
51949;SDS011;37974;53.218;6.640;2023-11-21T01:07:48;805.75;;;741.50;;
51949;SDS011;37974;53.218;6.640;2023-11-21T01:10:14;821.65;;;755.17;;
51949;SDS011;37974;53.218;6.640;2023-11-21T01:12:44;838.83;;;768.67;;
51949;SDS011;37974;53.218;6.640;2023-11-21T01:15:10;837.03;;;769.13;;
51949;SDS011;37974;53.218;6.640;2023-11-21T01:17:42;810.15;;;745.00;;
51949;SDS011;37974;53.218;6.640;2023-11-21T01:20:14;803.50;;;738.25;;
51949;SDS011;37974;53.218;6.640;2023-11-21T01:23:07;798.58;;;734.95;;
51949;SDS011;37974;53.218;6.640;2023-11-21T01:25:33;815.50;;;750.10;;
51949;SDS011;37974;53.218;6.640;2023-11-21T01:28:02;834.78;;;767.55;;
51949;SDS011;37974;53.218;6.640;2023-11-21T01:30:28;804.35;;;738.92;;
51949;SDS011;37974;53.218;6.640;2023-11-21T01:32:53;785.42;;;721.13;;
51949;SDS011;37974;53.218;6.640;2023-11-21T01:35:19;800.40;;;736.75;;
51949;SDS011;37974;53.218;6.640;2023-11-21T01:37:45;831.35;;;763.90;;
51949;SDS011;37974;53.218;6.640;2023-11-21T01:40:13;823.63;;;755.67;;
51949;SDS011;37974;53.218;6.640;2023-11-21T01:42:39;820.33;;;753.15;;
51949;SDS011;37974;53.218;6.640;2023-11-21T01:45:06;800.75;;;736.83;;
51949;SDS011;37974;53.218;6.640;2023-11-21T01:47:58;775.72;;;714.50;;
51949;SDS011;37974;53.218;6.640;2023-11-21T01:50:26;781.42;;;719.35;;
51949;SDS011;37974;53.218;6.640;2023-11-21T01:52:55;814.80;;;749.28;;
51949;SDS011;37974;53.218;6.640;2023-11-21T01:55:21;776.03;;;714.80;;
51949;SDS011;37974;53.218;6.640;2023-11-21T01:58:20;784.22;;;722.35;;
51949;SDS011;37974;53.218;6.640;2023-11-21T02:00:48;782.55;;;721.42;;
51949;SDS011;37974;53.218;6.640;2023-11-21T02:03:16;782.92;;;720.80;;
51949;SDS011;37974;53.218;6.640;2023-11-21T02:05:45;779.05;;;717.55;;
51949;SDS011;37974;53.218;6.640;2023-11-21T02:08:11;767.05;;;706.40;;
51949;SDS011;37974;53.218;6.640;2023-11-21T02:10:57;816.00;;;750.70;;
51949;SDS011;37974;53.218;6.640;2023-11-21T02:13:26;811.97;;;746.30;;
51949;SDS011;37974;53.218;6.640;2023-11-21T02:15:52;767.15;;;706.08;;
51949;SDS011;37974;53.218;6.640;2023-11-21T02:18:19;810.58;;;745.08;;
51949;SDS011;37974;53.218;6.640;2023-11-21T02:20:50;799.40;;;735.88;;
51949;SDS011;37974;53.218;6.640;2023-11-21T02:23:16;777.47;;;716.38;;
51949;SDS011;37974;53.218;6.640;2023-11-21T02:25:43;760.40;;;700.25;;
51949;SDS011;37974;53.218;6.640;2023-11-21T02:28:09;781.90;;;719.42;;
51949;SDS011;37974;53.218;6.640;2023-11-21T02:30:37;800.83;;;736.22;;
51949;SDS011;37974;53.218;6.640;2023-11-21T02:33:03;778.30;;;715.65;;
51949;SDS011;37974;53.218;6.640;2023-11-21T02:35:32;796.40;;;732.13;;
51949;SDS011;37974;53.218;6.640;2023-11-21T02:38:00;794.38;;;730.42;;
51949;SDS011;37974;53.218;6.640;2023-11-21T02:40:26;790.17;;;727.72;;
51949;SDS011;37974;53.218;6.640;2023-11-21T02:42:55;782.28;;;720.47;;
51949;SDS011;37974;53.218;6.640;2023-11-21T02:45:23;779.42;;;717.20;;
51949;SDS011;37974;53.218;6.640;2023-11-21T02:47:51;795.97;;;731.38;;
51949;SDS011;37974;53.218;6.640;2023-11-21T02:50:39;795.05;;;731.00;;
51949;SDS011;37974;53.218;6.640;2023-11-21T02:53:05;775.35;;;712.65;;
51949;SDS011;37974;53.218;6.640;2023-11-21T02:55:31;817.70;;;751.28;;
51949;SDS011;37974;53.218;6.640;2023-11-21T02:58:01;823.90;;;756.58;;
51949;SDS011;37974;53.218;6.640;2023-11-21T03:00:29;805.78;;;741.28;;
51949;SDS011;37974;53.218;6.640;2023-11-21T03:02:55;789.70;;;725.20;;
51949;SDS011;37974;53.218;6.640;2023-11-21T03:05:21;805.13;;;739.78;;
51949;SDS011;37974;53.218;6.640;2023-11-21T03:07:50;802.78;;;737.88;;
51949;SDS011;37974;53.218;6.640;2023-11-21T03:10:16;775.95;;;713.28;;
51949;SDS011;37974;53.218;6.640;2023-11-21T03:12:45;805.30;;;739.20;;
51949;SDS011;37974;53.218;6.640;2023-11-21T03:15:30;815.38;;;745.80;;
51949;SDS011;37974;53.218;6.640;2023-11-21T03:18:00;793.33;;;728.13;;
51949;SDS011;37974;53.218;6.640;2023-11-21T03:20:32;760.95;;;699.22;;
51949;SDS011;37974;53.218;6.640;2023-11-21T03:23:00;789.17;;;724.20;;
51949;SDS011;37974;53.218;6.640;2023-11-21T03:25:25;793.70;;;728.72;;
51949;SDS011;37974;53.218;6.640;2023-11-21T03:27:54;779.47;;;716.38;;
51949;SDS011;37974;53.218;6.640;2023-11-21T03:30:20;781.42;;;717.45;;
51949;SDS011;37974;53.218;6.640;2023-11-21T03:32:46;791.33;;;726.85;;
51949;SDS011;37974;53.218;6.640;2023-11-21T03:35:12;807.65;;;741.50;;
51949;SDS011;37974;53.218;6.640;2023-11-21T03:37:38;793.58;;;730.55;;
51949;SDS011;37974;53.218;6.640;2023-11-21T03:40:06;769.42;;;708.47;;
51949;SDS011;37974;53.218;6.640;2023-11-21T03:42:34;783.20;;;720.10;;
51949;SDS011;37974;53.218;6.640;2023-11-21T03:45:00;806.92;;;740.92;;
51949;SDS011;37974;53.218;6.640;2023-11-21T03:47:26;809.28;;;743.53;;
51949;SDS011;37974;53.218;6.640;2023-11-21T03:49:53;803.63;;;738.78;;
51949;SDS011;37974;53.218;6.640;2023-11-21T03:52:18;812.70;;;745.83;;
51949;SDS011;37974;53.218;6.640;2023-11-21T03:54:44;782.25;;;719.03;;
51949;SDS011;37974;53.218;6.640;2023-11-21T03:57:11;788.35;;;723.90;;
51949;SDS011;37974;53.218;6.640;2023-11-21T03:59:39;789.70;;;723.63;;
51949;SDS011;37974;53.218;6.640;2023-11-21T04:02:06;784.45;;;720.40;;
51949;SDS011;37974;53.218;6.640;2023-11-21T04:04:33;779.53;;;715.55;;
51949;SDS011;37974;53.218;6.640;2023-11-21T04:06:59;787.40;;;722.25;;
51949;SDS011;37974;53.218;6.640;2023-11-21T04:09:25;784.28;;;720.28;;
51949;SDS011;37974;53.218;6.640;2023-11-21T04:11:53;791.08;;;726.70;;
51949;SDS011;37974;53.218;6.640;2023-11-21T04:14:20;820.30;;;751.75;;
51949;SDS011;37974;53.218;6.640;2023-11-21T04:16:47;788.60;;;723.60;;
51949;SDS011;37974;53.218;6.640;2023-11-21T04:19:13;813.92;;;745.72;;
51949;SDS011;37974;53.218;6.640;2023-11-21T04:21:40;793.63;;;726.83;;
51949;SDS011;37974;53.218;6.640;2023-11-21T04:24:06;794.05;;;727.72;;
51949;SDS011;37974;53.218;6.640;2023-11-21T04:26:32;821.22;;;751.20;;
51949;SDS011;37974;53.218;6.640;2023-11-21T04:28:58;798.95;;;734.03;;
51949;SDS011;37974;53.218;6.640;2023-11-21T04:31:27;792.08;;;726.80;;
51949;SDS011;37974;53.218;6.640;2023-11-21T04:33:53;821.20;;;752.45;;
51949;SDS011;37974;53.218;6.640;2023-11-21T04:36:22;833.10;;;763.97;;
51949;SDS011;37974;53.218;6.640;2023-11-21T04:38:53;832.38;;;763.70;;
51949;SDS011;37974;53.218;6.640;2023-11-21T04:41:21;801.17;;;735.70;;
51949;SDS011;37974;53.218;6.640;2023-11-21T04:43:47;839.70;;;769.15;;
51949;SDS011;37974;53.218;6.640;2023-11-21T04:46:14;836.38;;;766.65;;
51949;SDS011;37974;53.218;6.640;2023-11-21T04:48:40;819.83;;;750.60;;
51949;SDS011;37974;53.218;6.640;2023-11-21T04:51:06;835.00;;;764.90;;
51949;SDS011;37974;53.218;6.640;2023-11-21T04:53:34;809.15;;;738.20;;
51949;SDS011;37974;53.218;6.640;2023-11-21T04:56:01;838.63;;;766.45;;
51949;SDS011;37974;53.218;6.640;2023-11-21T04:58:27;840.67;;;769.40;;
51949;SDS011;37974;53.218;6.640;2023-11-21T05:00:53;846.75;;;775.30;;
51949;SDS011;37974;53.218;6.640;2023-11-21T05:03:19;834.90;;;763.55;;
51949;SDS011;37974;53.218;6.640;2023-11-21T05:05:49;843.92;;;771.60;;
51949;SDS011;37974;53.218;6.640;2023-11-21T05:08:17;822.08;;;753.35;;
51949;SDS011;37974;53.218;6.640;2023-11-21T05:10:47;827.58;;;758.15;;
51949;SDS011;37974;53.218;6.640;2023-11-21T05:13:20;850.33;;;778.55;;
51949;SDS011;37974;53.218;6.640;2023-11-21T05:16:08;821.08;;;753.15;;
51949;SDS011;37974;53.218;6.640;2023-11-21T05:18:51;826.70;;;758.08;;
51949;SDS011;37974;53.218;6.640;2023-11-21T05:21:52;847.08;;;776.33;;
51949;SDS011;37974;53.218;6.640;2023-11-21T05:24:21;826.25;;;757.67;;
51949;SDS011;37974;53.218;6.640;2023-11-21T05:27:06;858.17;;;785.97;;
51949;SDS011;37974;53.218;6.640;2023-11-21T05:29:35;816.83;;;750.80;;
51949;SDS011;37974;53.218;6.640;2023-11-21T06:11:34;854.60;;;783.53;;
51949;SDS011;37974;53.218;6.640;2023-11-21T06:19:14;810.20;;;743.15;;
51949;SDS011;37974;53.218;6.640;2023-11-21T06:25:25;807.90;;;741.65;;
51949;SDS011;37974;53.218;6.640;2023-11-21T06:28:57;830.90;;;762.10;;
51949;SDS011;37974;53.218;6.640;2023-11-21T06:44:20;841.00;;;771.15;;
51949;SDS011;37974;53.218;6.640;2023-11-21T06:47:35;844.50;;;774.15;;
51949;SDS011;37974;53.218;6.640;2023-11-21T06:50:37;818.97;;;753.28;;
51949;SDS011;37974;53.218;6.640;2023-11-21T07:54:06;860.22;;;789.35;;
51949;SDS011;37974;53.218;6.640;2023-11-21T07:57:26;817.20;;;750.90;;
51949;SDS011;37974;53.218;6.640;2023-11-21T08:05:21;835.08;;;767.03;;
51949;SDS011;37974;53.218;6.640;2023-11-21T08:15:07;774.80;;;714.45;;
51949;SDS011;37974;53.218;6.640;2023-11-21T08:17:59;772.60;;;712.05;;
51949;SDS011;37974;53.218;6.640;2023-11-21T08:20:25;788.92;;;726.05;;
51949;SDS011;37974;53.218;6.640;2023-11-21T08:22:56;791.08;;;728.08;;
51949;SDS011;37974;53.218;6.640;2023-11-21T08:25:22;793.35;;;730.40;;
51949;SDS011;37974;53.218;6.640;2023-11-21T08:27:48;757.95;;;699.20;;
51949;SDS011;37974;53.218;6.640;2023-11-21T08:30:14;771.03;;;711.67;;
51949;SDS011;37974;53.218;6.640;2023-11-21T08:32:42;759.75;;;700.53;;
51949;SDS011;37974;53.218;6.640;2023-11-21T08:35:08;757.55;;;698.45;;
51949;SDS011;37974;53.218;6.640;2023-11-21T08:37:34;777.00;;;716.83;;
51949;SDS011;37974;53.218;6.640;2023-11-21T08:40:03;767.97;;;707.55;;
51949;SDS011;37974;53.218;6.640;2023-11-21T11:58:13;496.08;;;462.42;;
51949;SDS011;37974;53.218;6.640;2023-11-21T13:42:50;490.10;;;457.03;;
51949;SDS011;37974;53.218;6.640;2023-11-21T14:19:26;588.25;;;546.13;;
51949;SDS011;37974;53.218;6.640;2023-11-21T14:22:17;541.10;;;502.95;;
51949;SDS011;37974;53.218;6.640;2023-11-21T14:28:23;585.35;;;542.95;;
51949;SDS011;37974;53.218;6.640;2023-11-21T14:35:22;509.67;;;475.05;;
51949;SDS011;37974;53.218;6.640;2023-11-21T14:37:48;472.13;;;440.92;;
51949;SDS011;37974;53.218;6.640;2023-11-21T14:40:14;499.33;;;465.52;;
51949;SDS011;37974;53.218;6.640;2023-11-21T14:42:42;549.72;;;511.40;;
51949;SDS011;37974;53.218;6.640;2023-11-21T14:45:10;535.97;;;499.02;;
51949;SDS011;37974;53.218;6.640;2023-11-21T14:47:37;484.38;;;451.95;;
51949;SDS011;37974;53.218;6.640;2023-11-21T14:50:09;571.13;;;530.05;;
51949;SDS011;37974;53.218;6.640;2023-11-21T14:52:53;554.72;;;515.58;;
51949;SDS011;37974;53.218;6.640;2023-11-21T14:55:24;570.45;;;529.83;;
51949;SDS011;37974;53.218;6.640;2023-11-21T14:57:57;511.10;;;475.97;;
51949;SDS011;37974;53.218;6.640;2023-11-21T15:00:27;554.95;;;515.97;;
51949;SDS011;37974;53.218;6.640;2023-11-21T15:02:59;558.08;;;517.47;;
51949;SDS011;37974;53.218;6.640;2023-11-21T15:05:25;514.15;;;478.45;;
51949;SDS011;37974;53.218;6.640;2023-11-21T15:07:53;471.98;;;440.42;;
51949;SDS011;37974;53.218;6.640;2023-11-21T15:10:24;441.10;;;412.40;;
51949;SDS011;37974;53.218;6.640;2023-11-21T15:13:03;475.90;;;444.35;;
51949;SDS011;37974;53.218;6.640;2023-11-21T15:15:29;455.73;;;425.70;;
51949;SDS011;37974;53.218;6.640;2023-11-21T15:17:57;489.52;;;457.05;;
51949;SDS011;37974;53.218;6.640;2023-11-21T15:20:22;473.52;;;442.05;;
51949;SDS011;37974;53.218;6.640;2023-11-21T15:22:48;453.20;;;423.52;;
51949;SDS011;37974;53.218;6.640;2023-11-21T15:25:14;519.92;;;484.23;;
51949;SDS011;37974;53.218;6.640;2023-11-21T15:27:40;501.58;;;467.98;;
51949;SDS011;37974;53.218;6.640;2023-11-21T15:30:06;537.28;;;500.20;;
51949;SDS011;37974;53.218;6.640;2023-11-21T15:32:32;512.10;;;477.70;;
51949;SDS011;37974;53.218;6.640;2023-11-21T15:34:58;532.30;;;495.33;;
51949;SDS011;37974;53.218;6.640;2023-11-21T15:37:23;536.17;;;499.38;;
51949;SDS011;37974;53.218;6.640;2023-11-21T15:39:52;501.85;;;468.00;;
51949;SDS011;37974;53.218;6.640;2023-11-21T15:42:18;479.15;;;447.20;;
51949;SDS011;37974;53.218;6.640;2023-11-21T15:44:44;449.55;;;419.40;;
51949;SDS011;37974;53.218;6.640;2023-11-21T15:47:10;457.02;;;426.98;;
51949;SDS011;37974;53.218;6.640;2023-11-21T15:49:36;461.75;;;431.15;;
51949;SDS011;37974;53.218;6.640;2023-11-21T15:52:02;412.50;;;385.75;;
51949;SDS011;37974;53.218;6.640;2023-11-21T15:54:31;425.55;;;398.17;;
51949;SDS011;37974;53.218;6.640;2023-11-21T15:56:59;437.75;;;409.33;;
51949;SDS011;37974;53.218;6.640;2023-11-21T15:59:25;416.48;;;389.90;;
51949;SDS011;37974;53.218;6.640;2023-11-21T16:01:56;451.55;;;422.02;;
51949;SDS011;37974;53.218;6.640;2023-11-21T16:04:22;455.00;;;425.38;;
51949;SDS011;37974;53.218;6.640;2023-11-21T16:06:51;476.80;;;445.23;;
51949;SDS011;37974;53.218;6.640;2023-11-21T16:09:18;439.40;;;410.65;;
51949;SDS011;37974;53.218;6.640;2023-11-21T16:11:56;453.90;;;424.33;;
51949;SDS011;37974;53.218;6.640;2023-11-21T16:14:27;481.75;;;449.33;;
51949;SDS011;37974;53.218;6.640;2023-11-21T16:17:00;473.15;;;441.77;;
51949;SDS011;37974;53.218;6.640;2023-11-21T16:19:26;558.33;;;518.78;;
51949;SDS011;37974;53.218;6.640;2023-11-21T16:21:52;549.95;;;511.33;;
51949;SDS011;37974;53.218;6.640;2023-11-21T16:24:18;624.83;;;578.72;;
51949;SDS011;37974;53.218;6.640;2023-11-21T16:26:55;598.13;;;554.72;;
51949;SDS011;37974;53.218;6.640;2023-11-21T16:29:24;663.95;;;614.58;;
51949;SDS011;37974;53.218;6.640;2023-11-21T16:32:08;633.58;;;587.30;;
51949;SDS011;37974;53.218;6.640;2023-11-21T16:34:37;627.50;;;581.38;;
51949;SDS011;37974;53.218;6.640;2023-11-21T16:37:05;664.22;;;615.20;;
51949;SDS011;37974;53.218;6.640;2023-11-21T16:39:36;654.00;;;605.33;;
51949;SDS011;37974;53.218;6.640;2023-11-21T16:42:20;658.80;;;609.83;;
51949;SDS011;37974;53.218;6.640;2023-11-21T16:44:56;654.67;;;606.47;;
51949;SDS011;37974;53.218;6.640;2023-11-21T16:47:26;693.17;;;641.63;;
51949;SDS011;37974;53.218;6.640;2023-11-21T16:50:12;685.30;;;633.50;;
51949;SDS011;37974;53.218;6.640;2023-11-21T16:52:46;695.38;;;643.35;;
51949;SDS011;37974;53.218;6.640;2023-11-21T16:55:39;678.83;;;628.05;;
51949;SDS011;37974;53.218;6.640;2023-11-21T16:58:12;660.72;;;611.65;;
51949;SDS011;37974;53.218;6.640;2023-11-21T17:01:06;626.25;;;579.97;;
51949;SDS011;37974;53.218;6.640;2023-11-21T17:03:37;625.20;;;578.85;;
51949;SDS011;37974;53.218;6.640;2023-11-21T17:06:11;667.88;;;618.28;;
51949;SDS011;37974;53.218;6.640;2023-11-21T17:08:54;679.35;;;628.67;;
51949;SDS011;37974;53.218;6.640;2023-11-21T17:11:34;617.50;;;572.53;;
51949;SDS011;37974;53.218;6.640;2023-11-21T17:14:13;644.17;;;596.17;;
51949;SDS011;37974;53.218;6.640;2023-11-21T17:17:02;664.35;;;615.08;;
51949;SDS011;37974;53.218;6.640;2023-11-21T17:19:34;687.40;;;636.50;;
51949;SDS011;37974;53.218;6.640;2023-11-21T17:22:18;668.55;;;618.85;;
51949;SDS011;37974;53.218;6.640;2023-11-21T17:25:08;648.13;;;600.05;;
51949;SDS011;37974;53.218;6.640;2023-11-21T17:27:57;680.95;;;630.35;;
51949;SDS011;37974;53.218;6.640;2023-11-21T17:33:12;629.63;;;583.53;;
51949;SDS011;37974;53.218;6.640;2023-11-21T17:35:52;661.95;;;612.58;;
51949;SDS011;37974;53.218;6.640;2023-11-21T17:38:42;677.75;;;627.63;;
51949;SDS011;37974;53.218;6.640;2023-11-21T17:41:13;700.53;;;648.10;;
51949;SDS011;37974;53.218;6.640;2023-11-21T17:43:50;748.40;;;692.05;;
51949;SDS011;37974;53.218;6.640;2023-11-21T17:46:27;763.83;;;705.25;;
51949;SDS011;37974;53.218;6.640;2023-11-21T17:49:17;771.13;;;712.17;;
51949;SDS011;37974;53.218;6.640;2023-11-21T17:51:46;731.72;;;676.28;;
51949;SDS011;37974;53.218;6.640;2023-11-21T17:54:36;720.60;;;666.40;;
51949;SDS011;37974;53.218;6.640;2023-11-21T17:58:03;708.95;;;656.25;;
51949;SDS011;37974;53.218;6.640;2023-11-21T18:00:36;713.20;;;659.92;;
51949;SDS011;37974;53.218;6.640;2023-11-21T18:03:04;721.65;;;667.38;;
51949;SDS011;37974;53.218;6.640;2023-11-21T18:05:35;750.63;;;693.67;;
51949;SDS011;37974;53.218;6.640;2023-11-21T18:08:02;725.17;;;670.63;;
51949;SDS011;37974;53.218;6.640;2023-11-21T18:10:30;732.00;;;676.42;;
51949;SDS011;37974;53.218;6.640;2023-11-21T18:13:16;750.85;;;693.90;;
51949;SDS011;37974;53.218;6.640;2023-11-21T18:18:07;680.75;;;630.42;;
51949;SDS011;37974;53.218;6.640;2023-11-21T18:20:37;692.13;;;640.22;;
51949;SDS011;37974;53.218;6.640;2023-11-21T18:23:03;709.20;;;656.05;;
51949;SDS011;37974;53.218;6.640;2023-11-21T18:25:29;703.17;;;650.92;;
51949;SDS011;37974;53.218;6.640;2023-11-21T18:27:55;729.35;;;674.33;;
51949;SDS011;37974;53.218;6.640;2023-11-21T18:30:21;696.70;;;645.30;;
51949;SDS011;37974;53.218;6.640;2023-11-21T18:32:47;721.08;;;667.42;;
51949;SDS011;37974;53.218;6.640;2023-11-21T18:35:13;675.78;;;625.55;;
51949;SDS011;37974;53.218;6.640;2023-11-21T18:37:39;674.05;;;623.92;;
51949;SDS011;37974;53.218;6.640;2023-11-21T18:40:05;705.15;;;652.38;;
51949;SDS011;37974;53.218;6.640;2023-11-21T18:42:31;664.22;;;614.70;;
51949;SDS011;37974;53.218;6.640;2023-11-21T18:44:57;651.42;;;602.92;;
51949;SDS011;37974;53.218;6.640;2023-11-21T18:47:23;657.25;;;608.05;;
51949;SDS011;37974;53.218;6.640;2023-11-21T18:49:49;655.33;;;606.70;;
51949;SDS011;37974;53.218;6.640;2023-11-21T18:52:14;676.15;;;626.03;;
51949;SDS011;37974;53.218;6.640;2023-11-21T18:54:41;654.40;;;605.70;;
51949;SDS011;37974;53.218;6.640;2023-11-21T18:57:11;661.47;;;612.20;;
51949;SDS011;37974;53.218;6.640;2023-11-21T18:59:37;701.08;;;648.67;;
51949;SDS011;37974;53.218;6.640;2023-11-21T19:02:06;699.72;;;647.58;;
51949;SDS011;37974;53.218;6.640;2023-11-21T19:04:37;700.05;;;647.83;;
51949;SDS011;37974;53.218;6.640;2023-11-21T19:07:03;697.70;;;645.38;;
51949;SDS011;37974;53.218;6.640;2023-11-21T19:09:33;690.38;;;639.40;;
51949;SDS011;37974;53.218;6.640;2023-11-21T19:12:00;652.40;;;604.42;;
51949;SDS011;37974;53.218;6.640;2023-11-21T19:14:29;671.28;;;621.03;;
51949;SDS011;37974;53.218;6.640;2023-11-21T19:16:55;659.38;;;610.53;;
51949;SDS011;37974;53.218;6.640;2023-11-21T19:19:21;611.95;;;567.28;;
51949;SDS011;37974;53.218;6.640;2023-11-21T19:21:48;634.15;;;587.58;;
51949;SDS011;37974;53.218;6.640;2023-11-21T19:24:13;584.10;;;541.33;;
51949;SDS011;37974;53.218;6.640;2023-11-21T19:26:43;575.20;;;533.88;;
51949;SDS011;37974;53.218;6.640;2023-11-21T19:29:13;595.80;;;552.75;;
51949;SDS011;37974;53.218;6.640;2023-11-21T19:31:46;582.08;;;540.78;;
51949;SDS011;37974;53.218;6.640;2023-11-21T19:34:57;575.58;;;534.80;;
51949;SDS011;37974;53.218;6.640;2023-11-21T19:38:06;515.80;;;480.63;;
51949;SDS011;37974;53.218;6.640;2023-11-21T19:41:19;543.65;;;505.65;;
51949;SDS011;37974;53.218;6.640;2023-11-21T19:44:11;543.95;;;506.48;;
51949;SDS011;37974;53.218;6.640;2023-11-21T19:46:38;521.22;;;485.58;;
51949;SDS011;37974;53.218;6.640;2023-11-21T19:49:04;558.08;;;518.40;;
51949;SDS011;37974;53.218;6.640;2023-11-21T19:51:43;538.28;;;500.75;;
51949;SDS011;37974;53.218;6.640;2023-11-21T19:54:30;564.20;;;524.65;;
51949;SDS011;37974;53.218;6.640;2023-11-21T19:57:17;567.05;;;527.17;;
51949;SDS011;37974;53.218;6.640;2023-11-21T19:59:51;559.33;;;519.10;;
51949;SDS011;37974;53.218;6.640;2023-11-21T20:02:20;599.17;;;555.67;;
51949;SDS011;37974;53.218;6.640;2023-11-21T20:04:46;574.83;;;533.85;;
51949;SDS011;37974;53.218;6.640;2023-11-21T20:07:20;582.22;;;540.78;;
51949;SDS011;37974;53.218;6.640;2023-11-21T20:10:12;588.13;;;545.60;;
51949;SDS011;37974;53.218;6.640;2023-11-21T20:12:39;553.85;;;514.25;;
51949;SDS011;37974;53.218;6.640;2023-11-21T20:15:13;575.72;;;534.20;;
51949;SDS011;37974;53.218;6.640;2023-11-21T20:21:22;588.20;;;545.75;;
51949;SDS011;37974;53.218;6.640;2023-11-21T20:23:48;594.72;;;551.55;;
51949;SDS011;37974;53.218;6.640;2023-11-21T20:26:26;597.25;;;554.55;;
51949;SDS011;37974;53.218;6.640;2023-11-21T20:28:53;631.97;;;585.17;;
51949;SDS011;37974;53.218;6.640;2023-11-21T20:31:21;598.67;;;555.13;;
51949;SDS011;37974;53.218;6.640;2023-11-21T20:33:51;629.88;;;583.80;;
51949;SDS011;37974;53.218;6.640;2023-11-21T20:36:19;671.50;;;621.95;;
51949;SDS011;37974;53.218;6.640;2023-11-21T20:39:58;588.85;;;546.88;;
51949;SDS011;37974;53.218;6.640;2023-11-21T20:42:37;611.50;;;567.05;;
51949;SDS011;37974;53.218;6.640;2023-11-21T20:45:50;604.75;;;560.58;;
51949;SDS011;37974;53.218;6.640;2023-11-21T20:49:27;577.65;;;536.47;;
51949;SDS011;37974;53.218;6.640;2023-11-21T20:52:35;581.17;;;539.55;;
51949;SDS011;37974;53.218;6.640;2023-11-21T20:55:52;587.42;;;545.22;;
51949;SDS011;37974;53.218;6.640;2023-11-21T20:58:27;598.80;;;554.90;;
51949;SDS011;37974;53.218;6.640;2023-11-21T21:01:17;605.70;;;562.38;;
51949;SDS011;37974;53.218;6.640;2023-11-21T21:04:53;587.03;;;544.90;;
51949;SDS011;37974;53.218;6.640;2023-11-21T21:08:02;604.72;;;560.33;;
51949;SDS011;37974;53.218;6.640;2023-11-21T21:11:43;588.42;;;546.58;;
51949;SDS011;37974;53.218;6.640;2023-11-21T21:14:09;626.05;;;580.58;;
51949;SDS011;37974;53.218;6.640;2023-11-21T21:16:38;637.55;;;590.45;;
51949;SDS011;37974;53.218;6.640;2023-11-21T21:19:05;607.95;;;563.92;;
51949;SDS011;37974;53.218;6.640;2023-11-21T21:25:10;626.03;;;580.58;;
51949;SDS011;37974;53.218;6.640;2023-11-21T21:27:39;592.08;;;549.83;;
51949;SDS011;37974;53.218;6.640;2023-11-21T21:30:21;620.05;;;574.28;;
51949;SDS011;37974;53.218;6.640;2023-11-21T21:33:02;622.55;;;576.72;;
51949;SDS011;37974;53.218;6.640;2023-11-21T21:47:09;572.67;;;532.00;;
51949;SDS011;37974;53.218;6.640;2023-11-21T21:50:24;599.08;;;555.13;;
51949;SDS011;37974;53.218;6.640;2023-11-21T21:57:23;580.67;;;539.40;;
51949;SDS011;37974;53.218;6.640;2023-11-21T22:04:52;600.30;;;556.78;;
51949;SDS011;37974;53.218;6.640;2023-11-21T22:12:02;554.88;;;515.10;;
51949;SDS011;37974;53.218;6.640;2023-11-21T22:15:03;575.25;;;534.08;;
51949;SDS011;37974;53.218;6.640;2023-11-21T22:21:04;601.03;;;557.00;;
51949;SDS011;37974;53.218;6.640;2023-11-21T22:23:33;598.55;;;555.17;;
51949;SDS011;37974;53.218;6.640;2023-11-21T22:27:06;573.97;;;532.85;;
51949;SDS011;37974;53.218;6.640;2023-11-21T22:30:20;591.45;;;548.53;;
51949;SDS011;37974;53.218;6.640;2023-11-21T22:33:04;606.42;;;562.30;;
51949;SDS011;37974;53.218;6.640;2023-11-21T22:36:28;567.95;;;527.33;;
51949;SDS011;37974;53.218;6.640;2023-11-21T22:42:39;551.75;;;513.35;;
51949;SDS011;37974;53.218;6.640;2023-11-21T22:49:31;561.97;;;522.08;;
51949;SDS011;37974;53.218;6.640;2023-11-21T22:52:25;561.13;;;521.20;;
51949;SDS011;37974;53.218;6.640;2023-11-21T23:01:27;573.78;;;532.97;;
51949;SDS011;37974;53.218;6.640;2023-11-21T23:05:05;596.72;;;553.72;;
51949;SDS011;37974;53.218;6.640;2023-11-21T23:08:15;594.17;;;551.08;;
51949;SDS011;37974;53.218;6.640;2023-11-21T23:11:29;624.50;;;578.72;;
51949;SDS011;37974;53.218;6.640;2023-11-21T23:15:18;591.97;;;548.75;;
51949;SDS011;37974;53.218;6.640;2023-11-21T23:22:14;623.47;;;577.78;;
51949;SDS011;37974;53.218;6.640;2023-11-21T23:25:18;667.00;;;617.80;;
51949;SDS011;37974;53.218;6.640;2023-11-21T23:47:20;825.60;;;760.28;;
51949;SDS011;37974;53.218;6.640;2023-11-21T23:50:36;840.55;;;773.30;;
51949;SDS011;37974;53.218;6.640;2023-11-21T23:57:28;903.75;;;828.17;;
